Terminal Aerodrome Forecast
Issued by NWS Memphis, TN

Home | Current Version | Previous Version | Text Only | Print | Product List | Glossary On
Versions: 1 2 3 4 5 6 7 8 9 10 11 12 13
676
FTUS44 KMEG 111130
TAFJBR
TAF
KJBR 111130Z 1112/1212 18010G15KT P6SM OVC045
     FM111700 19015G22KT P6SM VCSH OVC040
      TEMPO 1120/1124 OVC025
     FM120000 21012G20KT 5SM -SHRA VCTS OVC015CB
      TEMPO 1202/1206 2SM SHRA BR OVC005
     FM120600 30007KT 5SM -RA OVC010
     FM120700 33010KT P6SM OVC035
     FM121000 35010KT P6SM SCT035 BKN250=

USA.gov is the U.S. government's official web portal to all federal, state and local government web resources and services.